createdAt,value
2022-09-23T00:02:02.027Z,1.80
2022-09-23T00:04:34.860Z,1.80
2022-09-23T00:07:07.741Z,1.77
2022-09-23T00:09:40.422Z,1.90
2022-09-23T00:12:13.101Z,1.70
2022-09-23T00:14:45.777Z,1.60
2022-09-23T00:17:18.579Z,1.50
2022-09-23T00:19:51.388Z,1.57
2022-09-23T00:22:24.168Z,1.60
2022-09-23T00:24:56.869Z,1.67
2022-09-23T00:27:29.790Z,1.47
2022-09-23T00:30:06.801Z,1.87
2022-09-23T00:32:40.521Z,1.53
2022-09-23T00:35:13.314Z,1.70
2022-09-23T00:37:46.218Z,1.40
2022-09-23T00:40:19.042Z,1.37
2022-09-23T00:42:52.118Z,1.50
2022-09-23T00:45:24.867Z,1.50
2022-09-23T00:48:01.828Z,1.40
2022-09-23T00:50:39.954Z,1.30
2022-09-23T00:53:15.754Z,1.67
2022-09-23T00:55:53.745Z,1.88
2022-09-23T00:58:31.315Z,1.50
2022-09-23T01:01:04.818Z,1.30
2022-09-23T01:03:37.665Z,1.33
2022-09-23T01:06:11.403Z,1.23
2022-09-23T01:08:46.811Z,1.50
2022-09-23T01:11:47.271Z,1.53
2022-09-23T01:14:43.702Z,1.30
2022-09-23T01:17:58.930Z,1.73
2022-09-23T01:20:41.921Z,1.27
2022-09-23T01:23:50.514Z,1.50
2022-09-23T01:26:43.975Z,1.30
2022-09-23T01:29:38.111Z,1.80
2022-09-23T01:32:16.512Z,1.40
2022-09-23T01:34:59.593Z,1.43
2022-09-23T01:37:58.843Z,1.90
2022-09-23T01:41:04.499Z,1.80
2022-09-23T01:43:47.308Z,1.67
2022-09-23T01:46:27.927Z,1.70
2022-09-23T01:49:12.319Z,1.80
2022-09-23T01:51:52.950Z,1.90
2022-09-23T01:54:38.770Z,1.60
2022-09-23T01:57:34.335Z,1.80
2022-09-23T02:00:13.635Z,1.63
2022-09-23T02:02:52.354Z,1.83
2022-09-23T02:05:34.105Z,1.20
2022-09-23T02:08:28.312Z,1.20
2022-09-23T02:11:07.693Z,1.33
2022-09-23T02:13:53.687Z,1.30
2022-09-23T02:16:35.984Z,1.60
2022-09-23T02:19:30.375Z,1.50
2022-09-23T02:22:12.062Z,1.70
2022-09-23T02:24:45.078Z,1.40
2022-09-23T02:27:20.693Z,1.37
2022-09-23T02:30:02.282Z,1.50
2022-09-23T02:32:40.185Z,1.60
2022-09-23T02:35:50.386Z,1.47
2022-09-23T02:38:41.759Z,1.98
2022-09-23T02:41:22.427Z,1.63
2022-09-23T02:44:00.400Z,1.63
2022-09-23T02:46:34.370Z,2.00
2022-09-23T02:49:18.599Z,2.00
2022-09-23T02:51:51.858Z,1.60
2022-09-23T02:54:27.353Z,1.83
2022-09-23T02:57:06.497Z,1.70
2022-09-23T02:59:39.259Z,1.57
2022-09-23T03:02:51.097Z,1.57
2022-09-23T03:05:34.705Z,1.60
2022-09-23T03:08:22.498Z,1.70
2022-09-23T03:11:11.541Z,1.40
2022-09-23T03:13:47.610Z,1.73
2022-09-23T03:16:43.563Z,1.60
2022-09-23T03:19:33.830Z,1.67
2022-09-23T03:22:25.054Z,1.53
2022-09-23T03:25:07.613Z,1.60
2022-09-23T03:27:42.315Z,2.17
2022-09-23T03:30:15.227Z,2.10
2022-09-23T03:32:51.077Z,1.80
2022-09-23T03:35:26.265Z,2.20
2022-09-23T03:38:11.928Z,2.10
2022-09-23T03:40:50.842Z,2.00
2022-09-23T03:43:23.775Z,1.97
2022-09-23T03:45:57.919Z,2.13
2022-09-23T03:48:30.797Z,2.30
2022-09-23T03:51:22.490Z,2.40
2022-09-23T03:53:55.426Z,1.87
2022-09-23T03:56:28.088Z,1.63
2022-09-23T03:59:01.193Z,1.97
2022-09-23T04:01:33.898Z,1.60
2022-09-23T04:04:07.174Z,1.80
2022-09-23T04:06:39.978Z,1.50
2022-09-23T04:09:14.822Z,1.80
2022-09-23T04:11:49.844Z,1.70
2022-09-23T04:14:23.752Z,1.57
2022-09-23T04:16:56.913Z,1.40
2022-09-23T04:19:29.600Z,1.63
2022-09-23T04:22:02.523Z,1.90
2022-09-23T04:24:35.432Z,1.70
2022-09-23T04:27:08.428Z,1.90
2022-09-23T04:29:41.330Z,1.80
2022-09-23T04:32:14.352Z,2.13
2022-09-23T04:34:47.088Z,1.60
2022-09-23T04:37:19.782Z,1.60
2022-09-23T04:39:52.480Z,1.50
2022-09-23T04:42:29.374Z,1.80
2022-09-23T04:45:02.007Z,1.67
2022-09-23T04:47:34.706Z,1.63
2022-09-23T04:50:08.017Z,1.70
2022-09-23T04:52:41.088Z,1.60
2022-09-23T04:55:13.735Z,2.00
2022-09-23T04:57:46.509Z,1.30
2022-09-23T05:00:19.756Z,1.50
2022-09-23T05:02:52.590Z,1.50
2022-09-23T05:05:26.095Z,1.20
2022-09-23T05:07:59.156Z,1.57
2022-09-23T05:10:31.816Z,1.50
2022-09-23T05:13:04.583Z,1.33
2022-09-23T05:15:37.281Z,1.50
2022-09-23T05:18:10.076Z,1.30
2022-09-23T05:20:42.850Z,1.30
2022-09-23T05:23:16.293Z,1.30
2022-09-23T05:25:55.366Z,1.27
2022-09-23T05:28:32.144Z,1.30
2022-09-23T05:31:18.674Z,1.37
2022-09-23T05:33:55.807Z,1.40
2022-09-23T05:36:35.544Z,1.37
2022-09-23T05:39:10.531Z,1.27
2022-09-23T05:41:43.561Z,1.75
2022-09-23T05:44:16.192Z,1.47
2022-09-23T05:46:49.226Z,1.20
2022-09-23T05:49:33.024Z,1.17
2022-09-23T05:52:14.748Z,1.50
2022-09-23T05:54:47.527Z,1.40
2022-09-23T05:57:21.326Z,1.80
2022-09-23T05:59:54.066Z,1.60
2022-09-23T06:02:26.762Z,1.20
2022-09-23T06:04:59.863Z,1.53
2022-09-23T06:07:32.611Z,1.40
2022-09-23T06:10:06.568Z,1.60
2022-09-23T06:12:39.301Z,1.20
2022-09-23T06:15:12.220Z,1.30
2022-09-23T06:17:45.006Z,1.50
2022-09-23T06:20:17.740Z,1.63
2022-09-23T06:22:54.309Z,1.40
2022-09-23T06:25:28.145Z,1.40
2022-09-23T06:28:01.113Z,1.67
2022-09-23T06:30:34.688Z,1.80
2022-09-23T06:33:07.489Z,1.40
2022-09-23T06:35:40.789Z,2.00
2022-09-23T06:38:14.242Z,1.50
2022-09-23T06:40:50.884Z,2.00
2022-09-23T06:43:25.395Z,2.10
2022-09-23T06:46:00.266Z,1.70
2022-09-23T06:48:35.205Z,1.63
2022-09-23T06:51:07.880Z,2.00
2022-09-23T06:53:40.882Z,1.63
2022-09-23T06:56:14.046Z,2.20
2022-09-23T06:58:48.079Z,1.93
2022-09-23T07:01:22.188Z,1.90
2022-09-23T07:03:55.622Z,2.10
2022-09-23T07:06:28.262Z,1.63
2022-09-23T07:09:01.103Z,1.80
2022-09-23T07:11:34.219Z,2.17
2022-09-23T07:14:06.859Z,1.90
2022-09-23T07:16:40.090Z,2.17
2022-09-23T07:19:12.907Z,2.17
2022-09-23T07:21:45.678Z,2.10
2022-09-23T07:24:18.327Z,1.90
2022-09-23T07:26:51.035Z,2.10
2022-09-23T07:29:23.724Z,2.40
2022-09-23T07:32:07.995Z,2.27
2022-09-23T07:34:44.395Z,2.20
2022-09-23T07:37:18.330Z,2.57
2022-09-23T07:39:51.095Z,2.75
2022-09-23T07:42:23.856Z,2.43
2022-09-23T07:44:56.759Z,2.50
2022-09-23T07:47:29.832Z,2.50
2022-09-23T07:50:02.591Z,2.00
2022-09-23T07:52:39.278Z,2.17
2022-09-23T07:55:12.085Z,2.30
2022-09-23T07:57:44.737Z,2.60
2022-09-23T08:00:17.808Z,2.40
2022-09-23T08:02:53.158Z,2.00
2022-09-23T08:05:26.224Z,2.47
2022-09-23T08:07:58.902Z,2.10
2022-09-23T08:10:32.100Z,2.07
2022-09-23T08:13:04.854Z,2.10
2022-09-23T08:15:37.685Z,1.90
2022-09-23T08:18:10.383Z,2.00
2022-09-23T08:20:47.436Z,2.23
2022-09-23T08:23:20.959Z,2.00
2022-09-23T08:25:59.874Z,2.30
2022-09-23T08:28:35.864Z,1.97
2022-09-23T08:31:08.654Z,1.90
2022-09-23T08:33:41.360Z,2.57
2022-09-23T08:36:14.215Z,1.70
2022-09-23T08:38:46.900Z,2.03
2022-09-23T08:41:45.959Z,1.80
2022-09-23T08:44:46.953Z,2.00
2022-09-23T08:47:23.593Z,2.00
2022-09-23T08:50:18.031Z,1.90
2022-09-23T08:53:12.889Z,2.00
2022-09-23T08:55:51.685Z,2.20
2022-09-23T08:58:36.201Z,2.03
2022-09-23T09:01:26.597Z,1.60
2022-09-23T09:04:02.871Z,2.13
2022-09-23T09:06:52.960Z,1.90
2022-09-23T09:09:51.459Z,2.07
2022-09-23T09:13:00.945Z,2.30
2022-09-23T09:15:43.906Z,1.80
2022-09-23T09:18:19.985Z,1.60
2022-09-23T09:21:12.329Z,1.87
2022-09-23T09:24:00.100Z,2.00
2022-09-23T09:26:34.459Z,2.00
2022-09-23T09:29:35.553Z,2.03
2022-09-23T09:32:35.848Z,2.20
2022-09-23T09:35:37.704Z,1.77
2022-09-23T09:38:10.833Z,1.60
2022-09-23T09:40:47.770Z,1.77
2022-09-23T09:43:23.479Z,2.00
2022-09-23T09:46:21.657Z,1.73
2022-09-23T09:49:08.224Z,2.20
2022-09-23T09:51:42.389Z,1.93
2022-09-23T09:54:26.740Z,1.73
2022-09-23T09:57:04.714Z,2.13
2022-09-23T09:59:41.954Z,2.23
2022-09-23T10:02:28.471Z,2.20
2022-09-23T10:05:05.883Z,2.30
2022-09-23T10:07:38.546Z,2.50
2022-09-23T10:10:32.248Z,2.60
2022-09-23T10:13:15.725Z,2.35
2022-09-23T10:15:48.529Z,1.92
2022-09-23T10:18:28.849Z,2.00
2022-09-23T10:21:14.300Z,1.80
2022-09-23T10:23:52.394Z,1.88
2022-09-23T10:26:37.352Z,1.83
2022-09-23T10:29:52.137Z,1.92
2022-09-23T10:32:30.716Z,2.00
2022-09-23T10:35:09.460Z,1.70
2022-09-23T10:37:47.044Z,1.92
2022-09-23T10:40:48.086Z,2.17
2022-09-23T10:43:51.787Z,1.92
2022-09-23T10:46:38.577Z,1.63
2022-09-23T10:49:33.604Z,1.65
2022-09-23T10:52:31.842Z,1.42
2022-09-23T10:55:22.782Z,1.50
2022-09-23T10:58:17.418Z,1.52
2022-09-23T11:01:20.147Z,1.58
2022-09-23T11:04:52.446Z,1.80
2022-09-23T11:07:37.214Z,1.73
2022-09-23T11:11:00.499Z,1.63
2022-09-23T11:13:45.529Z,1.50
2022-09-23T11:16:41.756Z,1.58
2022-09-23T11:19:22.058Z,1.83
2022-09-23T11:22:38.884Z,1.70
2022-09-23T11:25:40.238Z,1.63
2022-09-23T11:28:38.432Z,1.60
2022-09-23T11:31:37.262Z,1.33
2022-09-23T11:34:28.192Z,1.55
2022-09-23T11:37:23.959Z,1.48
2022-09-23T11:40:01.473Z,1.77
2022-09-23T11:42:48.445Z,1.40
2022-09-23T11:45:49.610Z,1.48
2022-09-23T11:48:30.574Z,1.48
2022-09-23T11:51:09.598Z,1.50
2022-09-23T11:53:53.600Z,1.60
2022-09-23T11:56:36.521Z,1.40
2022-09-23T11:59:37.588Z,1.40
2022-09-23T12:02:30.262Z,1.55
2022-09-23T12:05:14.696Z,1.42
2022-09-23T12:08:06.486Z,1.30
2022-09-23T12:11:18.286Z,1.60
2022-09-23T12:14:09.534Z,1.48
2022-09-23T12:16:49.023Z,1.60
2022-09-23T12:19:42.709Z,1.48
2022-09-23T12:22:53.850Z,1.50
2022-09-23T12:25:35.431Z,1.42
2022-09-23T12:28:16.577Z,1.10
2022-09-23T12:30:51.381Z,1.40
2022-09-23T12:33:27.630Z,1.40
2022-09-23T12:36:09.496Z,1.00
2022-09-23T12:38:51.916Z,1.27
2022-09-23T12:41:35.236Z,1.38
2022-09-23T12:44:14.736Z,1.67
2022-09-23T12:46:48.320Z,1.48
2022-09-23T12:49:25.395Z,1.40
2022-09-23T12:52:13.609Z,1.40
2022-09-23T12:54:48.459Z,1.70
2022-09-23T12:57:36.169Z,1.42
2022-09-23T13:00:12.901Z,1.52
2022-09-23T13:03:11.199Z,1.45
2022-09-23T13:06:16.430Z,1.38
2022-09-23T13:08:49.750Z,1.27
2022-09-23T13:11:27.637Z,1.70
2022-09-23T13:14:04.157Z,1.73
2022-09-23T13:16:46.560Z,1.40
2022-09-23T13:19:25.415Z,1.60
2022-09-23T13:22:08.810Z,1.45
2022-09-23T13:25:02.901Z,1.67
2022-09-23T13:27:36.118Z,1.70
2022-09-23T13:30:25.051Z,1.40
2022-09-23T13:33:13.943Z,1.40
2022-09-23T13:35:53.047Z,1.83
2022-09-23T13:38:29.587Z,1.58
2022-09-23T13:41:12.052Z,1.40
2022-09-23T13:43:50.514Z,1.48
2022-09-23T13:46:26.936Z,1.10
2022-09-23T13:48:59.826Z,1.40
2022-09-23T13:51:36.344Z,1.45
2022-09-23T13:54:30.941Z,1.52
2022-09-23T13:57:04.453Z,1.48
2022-09-23T13:59:41.341Z,1.60
2022-09-23T14:02:16.866Z,1.38
2022-09-23T14:04:50.721Z,1.50
2022-09-23T14:07:24.177Z,1.40
2022-09-23T14:09:57.008Z,1.40
2022-09-23T14:12:29.742Z,1.60
2022-09-23T14:15:02.594Z,1.30
2022-09-23T14:17:35.346Z,1.83
2022-09-23T14:20:20.422Z,1.40
2022-09-23T14:23:13.894Z,1.30
2022-09-23T14:25:47.421Z,1.20
2022-09-23T14:28:22.708Z,1.33
2022-09-23T14:30:58.283Z,1.50
2022-09-23T14:33:33.960Z,1.30
2022-09-23T14:36:36.389Z,1.27
2022-09-23T14:39:11.729Z,1.02
2022-09-23T14:41:45.869Z,1.42
2022-09-23T14:44:22.721Z,1.15
2022-09-23T14:46:59.670Z,1.20
2022-09-23T14:49:32.454Z,7.63
2022-09-23T14:52:06.979Z,2.50
2022-09-23T14:54:39.697Z,1.92
2022-09-23T14:57:29.902Z,1.42
2022-09-23T15:00:16.766Z,1.67
2022-09-23T15:03:01.473Z,2.10
2022-09-23T15:05:40.265Z,4.28
2022-09-23T15:08:19.824Z,1.52
2022-09-23T15:10:53.378Z,0.95
2022-09-23T15:13:29.736Z,6.53
2022-09-23T15:16:04.050Z,2.80
2022-09-23T15:18:38.636Z,1.10
2022-09-23T15:21:16.317Z,0.82
2022-09-23T15:23:51.839Z,0.82
2022-09-23T15:26:39.601Z,0.98
2022-09-23T15:29:12.578Z,1.00
2022-09-23T15:31:46.806Z,1.33
2022-09-23T15:34:20.871Z,1.25
2022-09-23T15:36:54.141Z,1.10
2022-09-23T15:39:35.727Z,1.00
2022-09-23T15:42:10.175Z,1.00
2022-09-23T15:44:43.058Z,1.08
2022-09-23T15:47:21.475Z,1.10
2022-09-23T15:49:54.506Z,1.20
2022-09-23T15:52:27.223Z,0.98
2022-09-23T15:55:00.093Z,1.15
2022-09-23T15:57:32.871Z,0.93
2022-09-23T16:00:06.694Z,1.00
2022-09-23T16:02:46.789Z,1.10
2022-09-23T16:05:25.174Z,7.05
2022-09-23T16:07:57.961Z,5.60
2022-09-23T16:10:30.929Z,2.55
2022-09-23T16:13:08.910Z,1.33
2022-09-23T16:15:41.774Z,1.08
2022-09-23T16:18:14.626Z,1.13
2022-09-23T16:20:49.326Z,0.90
2022-09-23T16:23:38.526Z,0.80
2022-09-23T16:26:26.603Z,0.93
2022-09-23T16:29:00.184Z,1.00
2022-09-23T16:31:32.979Z,1.02
2022-09-23T16:34:06.466Z,0.90
2022-09-23T16:36:41.822Z,1.40
2022-09-23T16:39:14.888Z,1.60
2022-09-23T16:41:47.794Z,1.63
2022-09-23T16:44:21.147Z,1.83
2022-09-23T16:46:53.972Z,1.85
2022-09-23T16:49:27.284Z,2.30
2022-09-23T16:52:01.537Z,2.50
2022-09-23T16:54:37.263Z,2.35
2022-09-23T16:57:12.050Z,8.35
2022-09-23T17:00:03.539Z,6.45
2022-09-23T17:02:55.174Z,3.85
2022-09-23T17:05:30.777Z,4.40
2022-09-23T17:08:04.173Z,3.83
2022-09-23T17:10:37.043Z,7.35
2022-09-23T17:13:11.212Z,4.05
2022-09-23T17:15:44.116Z,3.40
2022-09-23T17:18:19.513Z,3.20
2022-09-23T17:21:07.181Z,3.80
2022-09-23T17:23:39.827Z,3.35
2022-09-23T17:26:13.142Z,3.25
2022-09-23T17:28:45.911Z,3.70
2022-09-23T17:31:18.731Z,2.60
2022-09-23T17:33:52.567Z,3.77
2022-09-23T17:36:25.406Z,3.20
2022-09-23T17:38:58.195Z,3.17
2022-09-23T17:41:30.861Z,3.40
2022-09-23T17:44:04.637Z,2.95
2022-09-23T17:46:37.285Z,3.50
2022-09-23T17:49:10.021Z,3.30
2022-09-23T17:51:42.746Z,3.17
2022-09-23T17:54:15.512Z,4.00
2022-09-23T17:56:48.186Z,3.50
2022-09-23T17:59:20.936Z,3.55
2022-09-23T18:01:54.160Z,3.13
2022-09-23T18:04:26.933Z,4.30
2022-09-23T18:06:59.623Z,3.87
2022-09-23T18:09:32.435Z,3.60
2022-09-23T18:12:05.173Z,4.10
2022-09-23T18:14:38.000Z,4.03
2022-09-23T18:17:10.802Z,3.67
2022-09-23T18:19:46.378Z,3.67
2022-09-23T18:22:19.424Z,3.87
2022-09-23T18:24:52.129Z,3.47
2022-09-23T18:27:24.947Z,3.70
2022-09-23T18:29:57.890Z,3.27
2022-09-23T18:32:31.416Z,3.53
2022-09-23T18:35:04.734Z,4.10
2022-09-23T18:37:37.568Z,4.10
2022-09-23T18:40:14.496Z,4.23
2022-09-23T18:42:47.695Z,3.90
2022-09-23T18:45:20.509Z,4.50
2022-09-23T18:48:11.800Z,4.40
2022-09-23T18:50:44.688Z,4.90
2022-09-23T18:53:17.332Z,3.27
2022-09-23T18:55:50.050Z,3.37
2022-09-23T18:58:23.374Z,3.67
2022-09-23T19:00:56.198Z,3.90
2022-09-23T19:03:29.045Z,4.27
2022-09-23T19:06:06.968Z,3.60
2022-09-23T19:08:40.567Z,3.97
2022-09-23T19:11:13.736Z,4.00
2022-09-23T19:13:46.800Z,4.37
2022-09-23T19:16:19.717Z,4.20
2022-09-23T19:18:53.347Z,4.07
2022-09-23T19:21:27.066Z,4.17
2022-09-23T19:24:05.746Z,4.50
2022-09-23T19:26:40.529Z,5.17
2022-09-23T19:29:15.739Z,4.47
2022-09-23T19:31:49.234Z,3.93
2022-09-23T19:34:29.003Z,4.27
2022-09-23T19:37:04.469Z,3.73
2022-09-23T19:39:37.464Z,3.93
2022-09-23T19:42:10.285Z,4.80
2022-09-23T19:44:42.942Z,4.53
2022-09-23T19:47:17.455Z,4.17
2022-09-23T19:49:50.265Z,3.90
2022-09-23T19:52:23.808Z,4.20
2022-09-23T19:54:56.504Z,4.23
2022-09-23T19:57:33.371Z,4.33
2022-09-23T20:00:06.351Z,3.50
2022-09-23T20:02:45.409Z,4.47
2022-09-23T20:05:20.309Z,4.77
2022-09-23T20:07:53.323Z,4.50
2022-09-23T20:10:26.483Z,4.40
2022-09-23T20:12:59.499Z,3.77
2022-09-23T20:15:32.328Z,4.23
2022-09-23T20:18:06.451Z,4.10
2022-09-23T20:20:39.261Z,3.93
2022-09-23T20:23:12.086Z,4.33
2022-09-23T20:26:03.325Z,4.37
2022-09-23T20:28:36.105Z,4.60
2022-09-23T20:31:08.961Z,4.73
2022-09-23T20:33:42.040Z,4.40
2022-09-23T20:36:15.236Z,4.00
2022-09-23T20:38:48.061Z,4.00
2022-09-23T20:41:21.103Z,4.68
2022-09-23T20:43:55.043Z,3.70
2022-09-23T20:46:29.163Z,3.60
2022-09-23T20:49:03.557Z,3.90
2022-09-23T20:51:37.050Z,3.67
2022-09-23T20:54:09.835Z,3.67
2022-09-23T20:56:43.474Z,3.63
2022-09-23T20:59:17.556Z,4.00
2022-09-23T21:01:55.286Z,3.70
2022-09-23T21:04:29.217Z,3.47
2022-09-23T21:07:02.083Z,3.73
2022-09-23T21:09:34.750Z,4.20
2022-09-23T21:12:07.486Z,4.53
2022-09-23T21:14:40.151Z,4.10
2022-09-23T21:17:12.865Z,4.40
2022-09-23T21:19:45.499Z,4.13
2022-09-23T21:22:18.520Z,4.47
2022-09-23T21:25:26.522Z,3.83
2022-09-23T21:27:45.101Z,3.67
2022-09-23T21:30:17.845Z,3.60
2022-09-23T21:32:50.635Z,3.37
2022-09-23T21:35:23.459Z,3.57
2022-09-23T21:37:56.206Z,4.47
2022-09-23T21:40:47.664Z,4.77
2022-09-23T21:43:20.527Z,3.70
2022-09-23T21:45:59.268Z,5.00
2022-09-23T21:48:33.884Z,3.97
2022-09-23T21:51:19.113Z,4.63
2022-09-23T21:53:54.434Z,3.60
2022-09-23T21:56:29.697Z,4.30
2022-09-23T21:59:03.041Z,4.10
2022-09-23T22:01:39.251Z,4.17
2022-09-23T22:04:16.200Z,3.30
2022-09-23T22:06:49.190Z,3.33
2022-09-23T22:09:21.991Z,3.93
2022-09-23T22:12:11.578Z,3.33
2022-09-23T22:14:47.096Z,3.70
2022-09-23T22:17:21.051Z,4.07
2022-09-23T22:19:53.799Z,4.37
2022-09-23T22:22:26.507Z,4.13
2022-09-23T22:24:59.297Z,5.10
2022-09-23T22:27:31.999Z,3.87
2022-09-23T22:30:24.149Z,3.47
2022-09-23T22:32:57.987Z,3.80
2022-09-23T22:35:33.286Z,5.00
2022-09-23T22:38:05.986Z,4.73
2022-09-23T22:40:42.569Z,4.27
2022-09-23T22:43:15.339Z,4.30
2022-09-23T22:45:51.656Z,4.43
2022-09-23T22:48:24.444Z,3.77
2022-09-23T22:50:57.133Z,3.90
2022-09-23T22:53:29.887Z,3.10
2022-09-23T22:56:02.690Z,3.83
2022-09-23T22:58:35.340Z,3.50
2022-09-23T23:01:09.927Z,3.40
2022-09-23T23:03:42.617Z,3.47
2022-09-23T23:06:15.335Z,3.90
2022-09-23T23:08:48.034Z,3.80
2022-09-23T23:11:21.334Z,3.43
2022-09-23T23:13:54.345Z,4.60
2022-09-23T23:16:27.268Z,4.73
2022-09-23T23:19:01.490Z,4.03
2022-09-23T23:21:34.501Z,3.67
2022-09-23T23:24:07.374Z,3.60
2022-09-23T23:26:40.255Z,3.50
2022-09-23T23:29:14.979Z,3.47
2022-09-23T23:31:48.349Z,4.85
2022-09-23T23:34:22.130Z,4.53
2022-09-23T23:36:55.402Z,4.47
2022-09-23T23:39:28.329Z,3.83
2022-09-23T23:42:01.390Z,5.30
2022-09-23T23:44:34.339Z,4.93
2022-09-23T23:47:07.302Z,4.60
2022-09-23T23:49:40.052Z,4.90
2022-09-23T23:52:12.960Z,4.53
2022-09-23T23:54:46.171Z,4.37
2022-09-23T23:57:18.895Z,4.10
2022-09-23T23:59:51.676Z,4.10
